createdAt,value
2022-12-15T00:02:13.312Z,95655.78
2022-12-15T00:04:58.219Z,95653.81
2022-12-15T00:07:43.032Z,95664.34
2022-12-15T00:10:27.987Z,95668.34
2022-12-15T00:13:12.742Z,95668.50
2022-12-15T00:15:57.842Z,95661.72
2022-12-15T00:18:42.966Z,95659.53
2022-12-15T00:21:27.846Z,95664.53
2022-12-15T00:24:12.694Z,95654.53
2022-12-15T00:26:57.417Z,95661.31
2022-12-15T00:29:42.431Z,95662.09
2022-12-15T00:32:27.203Z,95669.88
2022-12-15T00:35:12.189Z,95672.09
2022-12-15T00:37:57.062Z,95695.59
2022-12-15T00:40:23.536Z,95698.56
2022-12-15T00:42:50.025Z,95694.38
2022-12-15T00:45:16.717Z,95693.97
2022-12-15T00:47:43.196Z,95688.34
2022-12-15T00:50:28.173Z,95695.50
2022-12-15T00:53:12.960Z,95694.75
2022-12-15T00:55:59.408Z,95691.13
2022-12-15T00:58:44.349Z,95696.31
2022-12-15T01:01:29.899Z,95699.69
2022-12-15T01:04:15.224Z,95695.91
2022-12-15T01:07:00.488Z,95701.66
2022-12-15T01:09:45.317Z,95703.50
2022-12-15T01:12:30.233Z,95715.06
2022-12-15T01:15:15.391Z,95702.69
2022-12-15T01:18:00.362Z,95695.75
2022-12-15T01:20:26.878Z,95702.75
2022-12-15T01:22:55.822Z,95709.91
2022-12-15T01:25:25.050Z,95709.91
2022-12-15T01:27:52.059Z,95706.75
2022-12-15T01:30:24.412Z,95722.72
2022-12-15T01:32:50.851Z,95724.72
2022-12-15T01:35:17.682Z,95718.31
2022-12-15T01:37:44.876Z,95726.28
2022-12-15T01:40:37.521Z,95730.06
2022-12-15T01:43:04.518Z,95714.72
2022-12-15T01:45:31.093Z,95705.53
2022-12-15T01:48:14.744Z,95713.28
2022-12-15T01:50:46.656Z,95723.47
2022-12-15T01:53:15.107Z,95724.84
2022-12-15T01:55:44.244Z,95724.25
2022-12-15T01:58:17.110Z,95726.44
2022-12-15T02:00:43.713Z,95721.84
2022-12-15T02:03:12.037Z,95727.22
2022-12-15T02:05:40.985Z,95729.81
2022-12-15T02:08:08.397Z,95734.56
2022-12-15T02:11:17.230Z,95740.19
2022-12-15T02:14:03.749Z,95732.22
2022-12-15T02:16:36.469Z,95736.97
2022-12-15T02:19:30.907Z,95735.81
2022-12-15T02:22:03.356Z,95728.22
2022-12-15T02:24:42.019Z,95727.44
2022-12-15T02:27:27.275Z,95742.59
2022-12-15T02:30:38.541Z,95742.59
2022-12-15T02:33:21.279Z,95733.81
2022-12-15T02:36:12.451Z,95740.56
2022-12-15T02:38:41.490Z,95747.34
2022-12-15T02:41:33.039Z,95752.78
2022-12-15T02:44:01.920Z,95753.34
2022-12-15T02:46:40.893Z,95754.75
2022-12-15T02:49:30.813Z,95756.56
2022-12-15T02:52:15.491Z,95749.38
2022-12-15T02:55:03.634Z,95747.78
2022-12-15T02:57:45.769Z,95746.59
2022-12-15T03:00:12.933Z,95749.78
2022-12-15T03:02:44.539Z,95753.00
2022-12-15T03:05:12.975Z,95753.81
2022-12-15T03:07:39.801Z,95754.63
2022-12-15T03:10:07.420Z,95756.41
2022-12-15T03:12:33.950Z,95757.41
2022-12-15T03:15:00.420Z,95761.03
2022-12-15T03:17:27.181Z,95776.75
2022-12-15T03:19:53.730Z,95773.38
2022-12-15T03:22:20.431Z,95775.56
2022-12-15T03:24:46.911Z,95770.16
2022-12-15T03:27:13.363Z,95779.34
2022-12-15T03:29:40.221Z,95776.16
2022-12-15T03:32:07.060Z,95778.94
2022-12-15T03:34:33.619Z,95789.72
2022-12-15T03:37:00.080Z,95802.28
2022-12-15T03:39:26.771Z,95797.69
2022-12-15T03:41:53.262Z,95796.06
2022-12-15T03:44:19.715Z,95800.47
2022-12-15T03:46:46.173Z,95790.91
2022-12-15T03:49:12.685Z,95787.13
2022-12-15T03:51:39.206Z,95789.31
2022-12-15T03:54:05.921Z,95797.25
2022-12-15T03:56:33.050Z,95800.47
2022-12-15T03:58:59.552Z,95798.88
2022-12-15T04:01:32.147Z,95803.69
2022-12-15T04:04:01.279Z,95809.69
2022-12-15T04:06:29.731Z,95802.09
2022-12-15T04:08:56.529Z,95806.47
2022-12-15T04:11:23.010Z,95810.47
2022-12-15T04:13:49.537Z,95806.09
2022-12-15T04:16:19.775Z,95824.81
2022-12-15T04:18:46.640Z,95823.81
2022-12-15T04:21:13.110Z,95815.66
2022-12-15T04:23:39.599Z,95798.69
2022-12-15T04:26:24.782Z,95810.47
2022-12-15T04:29:09.877Z,95813.25
2022-12-15T04:31:54.962Z,95817.66
2022-12-15T04:34:43.425Z,95800.91
2022-12-15T04:37:31.720Z,95804.91
2022-12-15T04:40:18.415Z,95807.31
2022-12-15T04:43:06.591Z,95812.88
2022-12-15T04:45:51.932Z,95812.09
2022-12-15T04:48:36.732Z,95817.28
2022-12-15T04:51:23.820Z,95813.69
2022-12-15T04:54:08.959Z,95812.50
2022-12-15T04:56:53.806Z,95813.69
2022-12-15T04:59:38.595Z,95805.34
2022-12-15T05:02:23.611Z,95805.72
2022-12-15T05:05:08.775Z,95819.09
2022-12-15T05:07:53.638Z,95824.47
2022-12-15T05:10:38.497Z,95835.44
2022-12-15T05:13:27.467Z,95838.41
2022-12-15T05:16:12.720Z,95836.44
2022-12-15T05:18:58.472Z,95836.00
2022-12-15T05:21:43.329Z,95842.78
2022-12-15T05:24:28.073Z,95850.38
2022-12-15T05:27:12.965Z,95843.41
2022-12-15T05:29:58.382Z,95837.22
2022-12-15T05:32:24.955Z,95832.63
2022-12-15T05:34:51.434Z,95848.41
2022-12-15T05:37:17.919Z,95848.38
2022-12-15T05:39:44.350Z,95841.22
2022-12-15T05:42:10.917Z,95839.59
2022-12-15T05:44:37.437Z,95844.41
2022-12-15T05:47:04.819Z,95836.03
2022-12-15T05:49:31.500Z,95835.22
2022-12-15T05:51:57.980Z,95839.59
2022-12-15T05:54:24.416Z,95848.38
2022-12-15T05:56:50.955Z,95851.19
2022-12-15T05:59:19.173Z,95857.13
2022-12-15T06:01:45.964Z,95863.53
2022-12-15T06:04:13.508Z,95856.75
2022-12-15T06:06:41.264Z,95854.97
2022-12-15T06:09:08.854Z,95865.09
2022-12-15T06:11:35.567Z,95872.31
2022-12-15T06:14:02.172Z,95859.34
2022-12-15T06:16:29.242Z,95857.56
2022-12-15T06:18:58.951Z,95860.75
2022-12-15T06:21:43.618Z,95872.31
2022-12-15T06:24:10.341Z,95861.94
2022-12-15T06:26:38.836Z,95841.22
2022-12-15T06:29:08.718Z,95839.59
2022-12-15T06:31:37.072Z,95846.56
2022-12-15T06:34:05.585Z,95850.38
2022-12-15T06:36:32.168Z,95854.56
2022-12-15T06:39:00.757Z,95851.97
2022-12-15T06:41:27.951Z,95858.75
2022-12-15T06:43:58.488Z,95853.56
2022-12-15T06:46:26.479Z,95853.16
2022-12-15T06:48:53.601Z,95847.19
2022-12-15T06:51:20.574Z,95840.81
2022-12-15T06:53:53.942Z,95845.19
2022-12-15T06:56:34.201Z,95840.59
2022-12-15T06:59:03.353Z,95833.22
2022-12-15T07:01:30.778Z,95845.38
2022-12-15T07:03:59.984Z,95861.94
2022-12-15T07:06:27.535Z,95856.75
2022-12-15T07:08:56.556Z,95859.53
2022-12-15T07:11:23.583Z,95850.97
2022-12-15T07:13:54.470Z,95858.53
2022-12-15T07:16:22.966Z,95864.72
2022-12-15T07:18:52.289Z,95869.09
2022-12-15T07:21:19.512Z,95870.31
2022-12-15T07:23:54.832Z,95874.69
2022-12-15T07:26:23.615Z,95870.69
2022-12-15T07:28:50.092Z,95878.09
2022-12-15T07:31:16.637Z,95867.53
2022-12-15T07:33:43.265Z,95874.28
2022-12-15T07:36:11.042Z,95869.91
2022-12-15T07:38:37.628Z,95875.88
2022-12-15T07:41:06.896Z,95873.91
2022-12-15T07:43:34.461Z,95885.88
2022-12-15T07:46:01.654Z,95885.44
2022-12-15T07:48:29.211Z,95894.81
2022-12-15T07:51:05.064Z,95899.59
2022-12-15T07:53:35.804Z,95893.03
2022-12-15T07:56:08.822Z,95894.22
2022-12-15T07:58:36.983Z,95898.81
2022-12-15T08:01:06.572Z,95916.56
2022-12-15T08:03:34.219Z,95921.34
2022-12-15T08:06:12.282Z,95925.13
2022-12-15T08:08:39.622Z,95919.75
2022-12-15T08:11:07.737Z,95923.16
2022-12-15T08:16:22.055Z,95921.31
2022-12-15T08:18:49.007Z,95928.91
2022-12-15T08:21:15.748Z,95931.69
2022-12-15T08:23:42.325Z,95918.34
2022-12-15T08:26:12.283Z,95921.91
2022-12-15T08:28:40.246Z,95927.31
2022-12-15T08:31:16.275Z,95934.88
2022-12-15T08:33:43.350Z,95939.25
2022-12-15T08:36:11.631Z,95934.44
2022-12-15T08:38:39.961Z,95937.66
2022-12-15T08:41:12.014Z,95943.22
2022-12-15T08:43:45.832Z,95942.41
2022-12-15T08:46:16.088Z,95952.81
2022-12-15T08:48:43.039Z,95941.19
2022-12-15T08:51:10.251Z,95939.19
2022-12-15T08:53:36.917Z,95928.44
2022-12-15T08:56:12.315Z,95917.03
2022-12-15T08:58:39.306Z,95915.63
2022-12-15T09:01:09.740Z,95910.00
2022-12-15T09:03:36.973Z,95903.13
2022-12-15T09:06:05.826Z,95901.84
2022-12-15T09:08:33.059Z,95897.78
2022-12-15T09:11:00.374Z,95905.66
2022-12-15T09:13:27.700Z,95913.19
2022-12-15T09:16:10.460Z,95914.03
2022-12-15T09:18:37.718Z,95913.44
2022-12-15T09:21:07.156Z,95925.28
2022-12-15T09:23:35.630Z,95944.53
2022-12-15T09:26:05.320Z,95936.97
2022-12-15T09:28:34.632Z,95927.84
2022-12-15T09:31:13.401Z,95945.19
2022-12-15T09:33:41.077Z,95936.53
2022-12-15T09:36:08.744Z,95938.13
2022-12-15T09:38:40.388Z,95951.69
2022-12-15T09:41:28.533Z,95949.06
2022-12-15T09:44:03.303Z,95944.09
2022-12-15T09:46:57.570Z,95945.72
2022-12-15T09:49:37.952Z,95933.16
2022-12-15T09:52:11.030Z,95929.00
2022-12-15T09:54:38.865Z,95922.97
2022-12-15T09:57:17.470Z,95924.56
2022-12-15T10:00:07.583Z,95928.94
2022-12-15T10:02:52.861Z,95924.56
2022-12-15T10:12:09.882Z,95899.38
2022-12-15T10:15:05.772Z,95896.22
2022-12-15T10:17:50.328Z,95893.06
2022-12-15T10:20:19.288Z,95901.53
2022-12-15T10:22:46.010Z,95906.69
2022-12-15T10:25:29.490Z,95909.81
2022-12-15T10:28:18.827Z,95903.44
2022-12-15T10:30:55.918Z,95904.00
2022-12-15T10:33:31.022Z,95905.28
2022-12-15T10:35:57.859Z,95904.13
2022-12-15T10:38:26.231Z,95907.81
2022-12-15T10:41:12.087Z,95913.19
2022-12-15T10:43:42.135Z,95903.59
2022-12-15T10:46:21.972Z,95893.13
2022-12-15T10:49:06.945Z,95886.25
2022-12-15T10:51:52.901Z,95895.38
2022-12-15T10:54:19.367Z,95894.97
2022-12-15T10:56:50.386Z,95901.75
2022-12-15T10:59:24.977Z,95901.72
2022-12-15T11:01:52.523Z,95901.28
2022-12-15T11:04:34.101Z,95893.41
2022-12-15T11:07:02.583Z,95896.81
2022-12-15T11:09:39.053Z,95896.38
2022-12-15T11:12:47.135Z,95897.56
2022-12-15T11:15:22.983Z,95886.41
2022-12-15T11:18:04.667Z,95886.19
2022-12-15T11:20:37.559Z,95883.47
2022-12-15T11:23:19.141Z,95875.09
2022-12-15T11:25:53.538Z,95880.16
2022-12-15T11:28:28.451Z,95875.78
2022-12-15T11:31:14.689Z,95873.28
2022-12-15T11:33:41.165Z,95868.88
2022-12-15T11:36:19.616Z,95851.38
2022-12-15T11:38:56.141Z,95837.69
2022-12-15T11:41:57.479Z,95823.19
2022-12-15T11:45:01.488Z,95810.59
2022-12-15T11:47:44.977Z,95813.84
2022-12-15T11:50:29.396Z,95799.84
2022-12-15T11:53:34.364Z,95792.16
2022-12-15T11:56:25.019Z,95801.63
2022-12-15T11:59:10.681Z,95803.84
2022-12-15T12:02:12.172Z,95788.09
2022-12-15T12:05:07.910Z,95782.69
2022-12-15T12:07:42.262Z,95773.00
2022-12-15T12:10:18.337Z,95781.94
2022-12-15T12:13:04.548Z,95778.47
2022-12-15T12:15:39.879Z,95767.84
2022-12-15T12:18:17.282Z,95765.56
2022-12-15T12:20:50.298Z,95762.63
2022-12-15T12:23:22.277Z,95765.69
2022-12-15T12:26:19.337Z,95759.22
2022-12-15T12:28:58.099Z,95758.69
2022-12-15T12:31:36.857Z,95769.34
2022-12-15T12:34:13.419Z,95766.78
2022-12-15T12:36:43.834Z,95774.47
2022-12-15T12:39:20.340Z,95767.81
2022-12-15T12:41:56.816Z,95761.38
2022-12-15T12:44:31.424Z,95767.63
2022-12-15T12:47:00.394Z,95768.66
2022-12-15T12:49:50.221Z,95764.41
2022-12-15T12:52:25.828Z,95773.88
2022-12-15T12:55:26.229Z,95781.81
2022-12-15T12:57:53.972Z,95778.50
2022-12-15T13:00:21.964Z,95767.53
2022-12-15T13:03:11.528Z,95755.59
2022-12-15T13:05:39.624Z,95752.78
2022-12-15T13:08:06.139Z,95749.66
2022-12-15T13:10:36.253Z,95746.91
2022-12-15T13:13:08.699Z,95725.31
2022-12-15T13:15:42.957Z,95708.84
2022-12-15T13:18:20.587Z,95708.97
2022-12-15T13:20:50.702Z,95699.31
2022-12-15T13:23:20.243Z,95695.41
2022-12-15T13:25:55.936Z,95691.22
2022-12-15T13:28:42.757Z,95695.41
2022-12-15T13:31:21.310Z,95686.75
2022-12-15T13:33:50.962Z,95694.94
2022-12-15T13:36:42.178Z,95701.72
2022-12-15T13:39:11.740Z,95705.91
2022-12-15T13:41:54.519Z,95708.22
2022-12-15T13:44:35.956Z,95715.25
2022-12-15T13:47:30.820Z,95711.22
2022-12-15T13:50:14.627Z,95706.31
2022-12-15T13:53:19.054Z,95699.97
2022-12-15T13:55:52.680Z,95698.22
2022-12-15T13:58:20.633Z,95699.84
2022-12-15T14:00:55.793Z,95697.94
2022-12-15T14:03:23.248Z,95691.38
2022-12-15T14:05:59.270Z,95694.78
2022-12-15T14:08:29.657Z,95690.00
2022-12-15T14:10:58.850Z,95683.94
2022-12-15T14:13:33.660Z,95683.63
2022-12-15T14:16:07.298Z,95677.63
2022-12-15T14:18:35.984Z,95677.78
2022-12-15T14:21:07.599Z,95679.78
2022-12-15T14:24:19.161Z,95683.03
2022-12-15T14:26:31.957Z,95670.97
2022-12-15T14:29:04.277Z,95677.03
2022-12-15T14:31:31.407Z,95682.25
2022-12-15T14:34:25.975Z,95674.53
2022-12-15T14:36:55.570Z,95677.78
2022-12-15T14:39:43.197Z,95675.44
2022-12-15T14:42:23.233Z,95671.84
2022-12-15T14:44:53.763Z,95669.69
2022-12-15T14:47:31.014Z,95656.84
2022-12-15T14:50:01.084Z,95658.66
2022-12-15T14:52:32.815Z,95656.69
2022-12-15T14:55:03.235Z,95656.25
2022-12-15T14:57:45.541Z,95664.50
2022-12-15T15:00:48.033Z,95666.75
2022-12-15T15:03:11.486Z,95910.84
2022-12-15T15:03:18.184Z,95665.19
2022-12-15T15:05:48.007Z,95663.16
2022-12-15T15:08:26.563Z,95668.34
2022-12-15T15:10:55.919Z,95662.31
2022-12-15T15:13:26.800Z,95678.75
2022-12-15T15:15:56.120Z,95667.94
2022-12-15T15:18:26.529Z,95681.25
2022-12-15T15:21:00.172Z,95680.47
2022-12-15T15:23:26.653Z,95692.09
2022-12-15T15:25:57.743Z,95695.25
2022-12-15T15:28:27.884Z,95688.03
2022-12-15T15:31:05.356Z,95687.69
2022-12-15T15:33:32.672Z,95681.13
2022-12-15T15:36:02.342Z,95689.75
2022-12-15T15:38:38.422Z,95699.75
2022-12-15T15:41:32.776Z,95694.25
2022-12-15T15:44:01.623Z,95694.13
2022-12-15T15:46:31.056Z,95684.34
2022-12-15T15:49:05.911Z,95689.22
2022-12-15T15:51:34.207Z,95691.22
2022-12-15T15:54:04.907Z,95690.81
2022-12-15T15:56:31.531Z,95689.16
2022-12-15T15:59:02.660Z,95687.06
2022-12-15T16:01:29.379Z,95683.28
2022-12-15T16:03:56.098Z,95673.56
2022-12-15T16:06:24.391Z,95668.38
2022-12-15T16:08:53.953Z,95667.94
2022-12-15T16:11:22.526Z,95670.38
2022-12-15T16:13:48.952Z,95675.69
2022-12-15T16:16:19.876Z,95675.25
2022-12-15T16:18:46.459Z,95674.38
2022-12-15T16:21:14.909Z,95676.78
2022-12-15T16:23:43.320Z,95685.44
2022-12-15T16:26:15.127Z,95675.94
2022-12-15T16:28:41.854Z,95677.16
2022-12-15T16:31:14.460Z,95686.25
2022-12-15T16:33:41.484Z,95681.84
2022-12-15T16:36:14.519Z,95684.38
2022-12-15T16:38:43.193Z,95687.38
2022-12-15T16:41:15.256Z,95676.81
2022-12-15T16:43:47.709Z,95675.00
2022-12-15T16:46:15.529Z,95674.41
2022-12-15T16:48:43.371Z,95682.00
2022-12-15T16:51:27.120Z,95673.34
2022-12-15T16:53:53.936Z,95671.03
2022-12-15T16:56:20.896Z,95671.34
2022-12-15T16:58:48.948Z,95667.31
2022-12-15T17:01:19.518Z,95661.28
2022-12-15T17:03:47.316Z,95662.59
2022-12-15T17:06:18.772Z,95660.38
2022-12-15T17:08:52.737Z,95649.84
2022-12-15T17:11:23.056Z,95646.09
2022-12-15T17:13:51.610Z,95638.06
2022-12-15T17:16:19.857Z,95630.88
2022-12-15T17:18:47.099Z,95629.28
2022-12-15T17:21:17.884Z,95627.22
2022-12-15T17:23:47.503Z,95636.44
2022-12-15T17:27:11.387Z,95637.47
2022-12-15T17:29:30.669Z,95630.97
2022-12-15T17:31:57.176Z,95628.00
2022-12-15T17:34:34.683Z,95627.66
2022-12-15T17:37:04.754Z,95627.00
2022-12-15T17:39:34.077Z,95618.16
2022-12-15T17:42:02.030Z,95620.50
2022-12-15T17:44:34.103Z,95615.56
2022-12-15T17:47:03.777Z,95621.66
2022-12-15T17:49:35.555Z,95622.81
2022-12-15T17:52:07.383Z,95622.25
2022-12-15T17:54:33.946Z,95630.94
2022-12-15T17:57:00.455Z,95628.53
2022-12-15T17:59:26.994Z,95640.69
2022-12-15T18:01:57.040Z,95628.44
2022-12-15T18:04:25.147Z,95624.63
2022-12-15T18:06:56.655Z,95622.03
2022-12-15T18:09:27.791Z,95623.66
2022-12-15T18:11:54.240Z,95622.94
2022-12-15T18:14:22.818Z,95625.31
2022-12-15T18:16:50.173Z,95621.81
2022-12-15T18:19:16.872Z,95614.56
2022-12-15T18:21:43.424Z,95612.97
2022-12-15T18:24:15.623Z,95613.72
2022-12-15T18:26:42.030Z,95613.75
2022-12-15T18:29:20.035Z,95609.84
2022-12-15T18:31:48.433Z,95615.88
2022-12-15T18:34:18.159Z,95618.69
2022-12-15T18:36:45.092Z,95608.09
2022-12-15T18:39:20.453Z,95603.38
2022-12-15T18:41:48.290Z,95598.25
2022-12-15T18:44:28.056Z,95595.69
2022-12-15T18:46:55.245Z,95594.50
2022-12-15T18:49:22.950Z,95588.84
2022-12-15T18:51:49.780Z,95593.25
2022-12-15T18:54:19.296Z,95588.91
2022-12-15T18:56:45.935Z,95593.19
2022-12-15T18:59:15.844Z,95591.53
2022-12-15T19:01:47.411Z,95599.50
2022-12-15T19:04:14.819Z,95582.59
2022-12-15T19:06:41.476Z,95573.09
2022-12-15T19:09:18.072Z,95570.28
2022-12-15T19:12:06.278Z,95561.13
2022-12-15T19:14:41.697Z,95557.06
2022-12-15T19:17:35.714Z,95558.38
2022-12-15T19:20:22.551Z,95553.19
2022-12-15T19:22:49.274Z,95549.16
2022-12-15T19:25:26.398Z,95547.69
2022-12-15T19:27:58.983Z,95542.34
2022-12-15T19:30:28.075Z,95549.88
2022-12-15T19:32:54.932Z,95549.88
2022-12-15T19:35:21.736Z,95555.13
2022-12-15T19:37:49.835Z,95547.13
2022-12-15T19:40:22.439Z,95549.16
2022-12-15T19:42:49.716Z,95547.25
2022-12-15T19:45:24.041Z,95552.75
2022-12-15T19:47:50.883Z,95554.41
2022-12-15T19:50:22.826Z,95554.03
2022-12-15T19:52:52.573Z,95560.50
2022-12-15T19:55:25.743Z,95557.75
2022-12-15T19:57:52.496Z,95565.06
2022-12-15T20:00:22.416Z,95572.44
2022-12-15T20:02:51.465Z,95570.19
2022-12-15T20:05:19.514Z,95566.88
2022-12-15T20:07:46.625Z,95563.34
2022-12-15T20:10:31.275Z,95562.09
2022-12-15T20:12:59.615Z,95562.84
2022-12-15T20:15:26.469Z,95558.84
2022-12-15T20:17:57.086Z,95564.00
2022-12-15T20:20:26.040Z,95559.25
2022-12-15T20:22:54.528Z,95557.47
2022-12-15T20:25:25.655Z,95556.56
2022-12-15T20:27:52.234Z,95562.97
2022-12-15T20:30:25.638Z,95570.25
2022-12-15T20:32:52.720Z,95564.91
2022-12-15T20:35:20.769Z,95572.53
2022-12-15T20:37:48.115Z,95574.94
2022-12-15T20:40:27.687Z,95567.72
2022-12-15T20:42:55.622Z,95562.53
2022-12-15T20:45:25.618Z,95563.34
2022-12-15T20:47:54.824Z,95568.78
2022-12-15T20:50:33.496Z,95572.59
2022-12-15T20:52:59.975Z,95567.19
2022-12-15T20:55:26.808Z,95557.03
2022-12-15T20:57:53.932Z,95551.72
2022-12-15T21:00:21.868Z,95555.75
2022-12-15T21:02:49.382Z,95548.53
2022-12-15T21:05:23.998Z,95550.56
2022-12-15T21:07:51.641Z,95549.28
2022-12-15T21:10:20.166Z,95543.28
2022-12-15T21:12:47.618Z,95537.44
2022-12-15T21:15:18.905Z,95542.19
2022-12-15T21:17:45.503Z,95554.72
2022-12-15T21:20:13.445Z,95554.88
2022-12-15T21:22:40.805Z,95551.81
2022-12-15T21:25:23.335Z,95542.69
2022-12-15T21:27:49.779Z,95553.72
2022-12-15T21:30:20.557Z,95548.72
2022-12-15T21:32:48.758Z,95541.78
2022-12-15T21:35:17.289Z,95550.56
2022-12-15T21:37:46.278Z,95548.13
2022-12-15T21:40:17.920Z,95541.91
2022-12-15T21:42:44.609Z,95544.56
2022-12-15T21:45:16.886Z,95541.91
2022-12-15T21:48:02.082Z,95547.81
2022-12-15T21:50:28.629Z,95555.00
2022-12-15T21:52:55.581Z,95555.81
2022-12-15T21:55:26.234Z,95554.31
2022-12-15T21:57:53.665Z,95558.50
2022-12-15T22:00:21.841Z,95563.91
2022-12-15T22:02:49.999Z,95566.56
2022-12-15T22:05:24.529Z,95571.44
2022-12-15T22:07:51.664Z,95571.75
2022-12-15T22:10:18.389Z,95569.88
2022-12-15T22:12:52.395Z,95577.09
2022-12-15T22:15:24.308Z,95585.09
2022-12-15T22:17:50.812Z,95584.16
2022-12-15T22:20:22.662Z,95572.94
2022-12-15T22:22:49.854Z,95571.75
2022-12-15T22:25:18.666Z,95582.13
2022-12-15T22:27:46.089Z,95578.38
2022-12-15T22:30:22.149Z,95571.38
2022-12-15T22:32:48.944Z,95575.19
2022-12-15T22:35:17.762Z,95584.22
2022-12-15T22:37:45.025Z,95598.69
2022-12-15T22:40:13.954Z,95594.78
2022-12-15T22:42:45.480Z,95591.09
2022-12-15T22:45:20.587Z,95594.69
2022-12-15T22:47:49.255Z,95593.34
2022-12-15T22:50:20.224Z,95591.75
2022-12-15T22:52:47.775Z,95597.28
2022-12-15T22:55:16.774Z,95599.66
2022-12-15T22:58:03.199Z,95602.75
2022-12-15T23:00:29.678Z,95599.09
2022-12-15T23:05:30.038Z,95602.38
2022-12-15T23:07:56.714Z,95607.50
2022-12-15T23:10:41.833Z,95605.50
2022-12-15T23:13:08.330Z,95603.13
2022-12-15T23:15:53.509Z,95611.16
2022-12-15T23:18:21.841Z,95607.97
2022-12-15T23:20:48.292Z,95604.41
2022-12-15T23:23:15.532Z,95612.75
2022-12-15T23:25:42.062Z,95611.97
2022-12-15T23:28:08.754Z,95613.22
2022-12-15T23:30:35.460Z,95614.00
2022-12-15T23:33:01.985Z,95619.19
2022-12-15T23:35:28.450Z,95615.44
2022-12-15T23:37:54.930Z,95619.19
2022-12-15T23:40:22.565Z,95624.78
2022-12-15T23:42:52.283Z,95618.81
2022-12-15T23:45:18.967Z,95618.03
2022-12-15T23:47:45.492Z,95624.22
2022-12-15T23:50:12.008Z,95625.56
2022-12-15T23:52:38.640Z,95626.38
2022-12-15T23:55:08.816Z,95621.63
2022-12-15T23:57:35.845Z,95634.44
